Flight Track Log - Related Links

Times and Time Zones

All times are in EDT time to prevent confusion due to time zone crossing. See the TAM3076 flight status page for this flight to view local times or setup timezone preferences in your user account.

Time Position Orientation Groundspeed Altitude Reporting Facility
EDT Latitude Longitude Course Direction KTS MPH feet Rate Location/Type
Tue 09:53:00 AM -22.1414 -42.4537 48° Northeast  Level Estimated
Tue 09:54:00 AM -22.0936 -42.3975 47° Northeast  Level Estimated
Tue 09:55:00 AM -22.0458 -42.3414 47° Northeast  Level Estimated
Tue 09:56:00 AM -21.9979 -42.2854 47° Northeast  Level Estimated
Tue 09:57:00 AM -21.9500 -42.2294 47° Northeast  Level Estimated
Tue 09:58:00 AM -21.9021 -42.1734 47° Northeast  Level Estimated
Tue 09:59:00 AM -21.8542 -42.1174 47° Northeast  Level Estimated
Tue 10:00:00 AM -21.8063 -42.0615 47° Northeast  Level Estimated
Tue 10:01:00 AM -21.7583 -42.0056 47° Northeast  Level Estimated
Tue 10:02:00 AM -21.7103 -41.9498 47° Northeast  Level Estimated
Tue 10:03:00 AM -21.6623 -41.8940 47° Northeast  Level Estimated
Tue 10:04:00 AM -21.6143 -41.8382 47° Northeast  Level Estimated
Tue 10:05:00 AM -21.5663 -41.7825 47° Northeast  Level Estimated
Tue 10:06:00 AM -21.5183 -41.7268 47° Northeast  Level Estimated
Tue 10:07:00 AM -21.4702 -41.6712 47° Northeast  Level Estimated
Tue 10:08:00 AM -21.4221 -41.6156 47° Northeast  Level Estimated
Tue 10:09:00 AM -21.3740 -41.5600 47° Northeast  Level Estimated
Tue 10:10:00 AM -21.3259 -41.5045 47° Northeast  Level Estimated
Tue 10:11:00 AM -21.2777 -41.4490 47° Northeast  Level Estimated
Tue 10:12:00 AM -21.2296 -41.3935 47° Northeast  Level Estimated
Tue 10:13:00 AM -21.1814 -41.3381 47° Northeast  Level Estimated
Tue 10:14:00 AM -21.1332 -41.2826 47° Northeast  Level Estimated
Tue 10:15:00 AM -21.0850 -41.2273 47° Northeast  Level Estimated
Tue 10:16:00 AM -21.0368 -41.1720 47° Northeast  Level Estimated
Tue 10:17:00 AM -20.9885 -41.1167 47° Northeast  Level Estimated
Tue 10:18:00 AM -20.9403 -41.0614 47° Northeast  Level Estimated
Tue 10:19:00 AM -20.8920 -41.0062 47° Northeast  Level Estimated
Tue 10:20:00 AM -20.8437 -40.9510 47° Northeast  Level Estimated
Tue 10:21:00 AM -20.7953 -40.8959 47° Northeast  Level Estimated
Tue 10:22:00 AM -20.7470 -40.8408 47° Northeast  Level Estimated
Tue 10:23:00 AM -20.6987 -40.7857 47° Northeast  Level Estimated
Tue 10:24:00 AM -20.6503 -40.7307 47° Northeast  Level Estimated
Tue 10:25:00 AM -20.6019 -40.6757 47° Northeast  Level Estimated
Tue 10:26:00 AM -20.5535 -40.6207 47° Northeast  Level Estimated
Tue 10:27:00 AM -20.5051 -40.5658 47° Northeast  Level Estimated
Tue 10:28:00 AM -20.4566 -40.5109 47° Northeast  Level Estimated
Tue 10:29:00 AM -20.4082 -40.4560 47° Northeast  Level Estimated
Tue 10:30:00 AM -20.3597 -40.4012 47° Northeast  Level Estimated
Tue 10:31:00 AM -20.3112 -40.3464 47° Northeast  Level Estimated
Tue 10:32:00 AM -20.2627 -40.2916 47° Northeast  Level Estimated
Tue 10:33:00 AM -20.2581 -40.2864 47° Northeast  Level Estimated
Tue 10:34:00 AM -20.2581 -40.2864 13° North  Level Estimated
Tue 10:35:00 AM -20.2581 -40.2864 13° North  Level Estimated
Tue 10:36:00 AM -20.2581 -40.2864 13° North  Level Estimated
Tue 10:37:00 AM -20.2581 -40.2864 13° North  Level Estimated
Tue 10:38:00 AM -20.2581 -40.2864 13° North  Level Estimated
Tue 10:39:00 AM -20.2581 -40.2864 13° North  Level Estimated
Tue 10:40:00 AM -20.2581 -40.2864 13° North  Level Estimated
Tue 10:41:00 AM -20.2581 -40.2864 13° North  Level Estimated
Tue 10:42:00 AM -20.2581 -40.2864 13° North  Level Estimated
Tue 10:43:00 AM -20.2581 -40.2864 13° North  Level Estimated
Tue 10:44:00 AM -20.2581 -40.2864 13° North  Level Estimated
Tue 10:45:00 AM -20.2581 -40.2864 13° North  Level Estimated
Tue 10:46:00 AM -20.2581 -40.2864 13° North  Level Estimated
Tue 10:47:00 AM -20.2581 -40.2864 13° North  Level Estimated
Tue 10:48:00 AM -20.2581 -40.2864 13° North  Level Estimated

Login

Don't have an account? Register now (free) for customized features, flight alerts, and more!